sensor_id;sensor_type;location;lat;lon;timestamp;P1;durP1;ratioP1;P2;durP2;ratioP2
23624;SDS011;11989;47.872;12.014;2023-05-13T00:01:24;9.18;;;7.93;;
23624;SDS011;11989;47.872;12.014;2023-05-13T00:03:50;10.38;;;8.35;;
23624;SDS011;11989;47.872;12.014;2023-05-13T00:06:17;11.05;;;8.80;;
23624;SDS011;11989;47.872;12.014;2023-05-13T00:08:43;9.10;;;7.90;;
23624;SDS011;11989;47.872;12.014;2023-05-13T00:11:09;9.75;;;7.97;;
23624;SDS011;11989;47.872;12.014;2023-05-13T00:13:35;10.48;;;8.52;;
23624;SDS011;11989;47.872;12.014;2023-05-13T00:16:01;8.80;;;7.88;;
23624;SDS011;11989;47.872;12.014;2023-05-13T00:18:27;10.50;;;8.10;;
23624;SDS011;11989;47.872;12.014;2023-05-13T00:20:53;11.60;;;9.32;;
23624;SDS011;11989;47.872;12.014;2023-05-13T00:23:20;11.35;;;10.15;;
23624;SDS011;11989;47.872;12.014;2023-05-13T00:25:46;10.95;;;9.18;;
23624;SDS011;11989;47.872;12.014;2023-05-13T00:28:12;11.65;;;10.15;;
23624;SDS011;11989;47.872;12.014;2023-05-13T00:30:39;13.00;;;10.35;;
23624;SDS011;11989;47.872;12.014;2023-05-13T00:33:06;13.65;;;10.98;;
23624;SDS011;11989;47.872;12.014;2023-05-13T00:35:32;13.15;;;11.32;;
23624;SDS011;11989;47.872;12.014;2023-05-13T00:37:58;13.13;;;11.10;;
23624;SDS011;11989;47.872;12.014;2023-05-13T00:40:24;13.15;;;11.73;;
23624;SDS011;11989;47.872;12.014;2023-05-13T00:42:50;12.00;;;10.70;;
23624;SDS011;11989;47.872;12.014;2023-05-13T00:45:16;13.77;;;11.50;;
23624;SDS011;11989;47.872;12.014;2023-05-13T00:47:43;15.32;;;12.05;;
23624;SDS011;11989;47.872;12.014;2023-05-13T00:50:09;13.20;;;11.80;;
23624;SDS011;11989;47.872;12.014;2023-05-13T00:52:39;16.30;;;12.65;;
23624;SDS011;11989;47.872;12.014;2023-05-13T00:55:06;13.70;;;11.23;;
23624;SDS011;11989;47.872;12.014;2023-05-13T00:57:32;14.63;;;11.40;;
23624;SDS011;11989;47.872;12.014;2023-05-13T00:59:59;13.68;;;10.70;;
23624;SDS011;11989;47.872;12.014;2023-05-13T01:02:32;13.63;;;11.18;;
23624;SDS011;11989;47.872;12.014;2023-05-13T01:10:32;13.57;;;10.93;;
23624;SDS011;11989;47.872;12.014;2023-05-13T01:13:00;12.02;;;10.38;;
23624;SDS011;11989;47.872;12.014;2023-05-13T01:15:28;12.93;;;10.48;;
23624;SDS011;11989;47.872;12.014;2023-05-13T01:18:05;11.70;;;10.30;;
23624;SDS011;11989;47.872;12.014;2023-05-13T01:20:32;12.23;;;10.02;;
23624;SDS011;11989;47.872;12.014;2023-05-13T01:22:59;14.30;;;11.45;;
23624;SDS011;11989;47.872;12.014;2023-05-13T01:25:27;11.77;;;10.15;;
23624;SDS011;11989;47.872;12.014;2023-05-13T01:27:53;16.85;;;10.90;;
23624;SDS011;11989;47.872;12.014;2023-05-13T01:30:20;11.52;;;9.32;;
23624;SDS011;11989;47.872;12.014;2023-05-13T01:32:47;13.05;;;10.82;;
23624;SDS011;11989;47.872;12.014;2023-05-13T01:35:13;15.38;;;11.13;;
23624;SDS011;11989;47.872;12.014;2023-05-13T01:37:40;13.25;;;11.25;;
23624;SDS011;11989;47.872;12.014;2023-05-13T01:40:07;12.60;;;10.65;;
23624;SDS011;11989;47.872;12.014;2023-05-13T01:42:33;13.18;;;11.13;;
23624;SDS011;11989;47.872;12.014;2023-05-13T01:44:59;11.88;;;10.68;;
23624;SDS011;11989;47.872;12.014;2023-05-13T01:47:26;15.90;;;11.10;;
23624;SDS011;11989;47.872;12.014;2023-05-13T01:49:52;14.60;;;10.55;;
23624;SDS011;11989;47.872;12.014;2023-05-13T01:52:18;14.00;;;11.35;;
23624;SDS011;11989;47.872;12.014;2023-05-13T01:54:44;13.48;;;10.40;;
23624;SDS011;11989;47.872;12.014;2023-05-13T01:57:10;13.73;;;11.38;;
23624;SDS011;11989;47.872;12.014;2023-05-13T01:59:36;13.00;;;11.57;;
23624;SDS011;11989;47.872;12.014;2023-05-13T02:02:02;13.75;;;11.55;;
23624;SDS011;11989;47.872;12.014;2023-05-13T02:04:29;12.25;;;10.95;;
23624;SDS011;11989;47.872;12.014;2023-05-13T02:06:55;15.98;;;12.02;;
23624;SDS011;11989;47.872;12.014;2023-05-13T02:09:21;12.45;;;10.55;;
23624;SDS011;11989;47.872;12.014;2023-05-13T02:11:47;15.82;;;11.55;;
23624;SDS011;11989;47.872;12.014;2023-05-13T02:14:13;15.10;;;12.13;;
23624;SDS011;11989;47.872;12.014;2023-05-13T02:16:39;13.52;;;10.75;;
23624;SDS011;11989;47.872;12.014;2023-05-13T02:19:05;13.60;;;11.43;;
23624;SDS011;11989;47.872;12.014;2023-05-13T02:21:32;13.50;;;11.05;;
23624;SDS011;11989;47.872;12.014;2023-05-13T02:23:58;14.60;;;12.15;;
23624;SDS011;11989;47.872;12.014;2023-05-13T02:26:24;19.50;;;12.70;;
23624;SDS011;11989;47.872;12.014;2023-05-13T02:28:50;14.27;;;10.93;;
23624;SDS011;11989;47.872;12.014;2023-05-13T02:31:16;17.30;;;13.15;;
23624;SDS011;11989;47.872;12.014;2023-05-13T02:33:42;15.65;;;12.45;;
23624;SDS011;11989;47.872;12.014;2023-05-13T02:36:08;15.38;;;12.18;;
23624;SDS011;11989;47.872;12.014;2023-05-13T02:38:34;14.82;;;12.88;;
23624;SDS011;11989;47.872;12.014;2023-05-13T02:41:00;16.23;;;12.63;;
23624;SDS011;11989;47.872;12.014;2023-05-13T02:43:26;15.65;;;13.50;;
23624;SDS011;11989;47.872;12.014;2023-05-13T02:45:53;16.83;;;13.77;;
23624;SDS011;11989;47.872;12.014;2023-05-13T02:48:20;17.63;;;14.05;;
23624;SDS011;11989;47.872;12.014;2023-05-13T02:50:46;15.93;;;12.98;;
23624;SDS011;11989;47.872;12.014;2023-05-13T02:53:12;15.80;;;13.48;;
23624;SDS011;11989;47.872;12.014;2023-05-13T02:55:38;18.15;;;14.25;;
23624;SDS011;11989;47.872;12.014;2023-05-13T02:58:04;18.05;;;14.05;;
23624;SDS011;11989;47.872;12.014;2023-05-13T03:00:30;16.55;;;13.75;;
23624;SDS011;11989;47.872;12.014;2023-05-13T03:02:56;17.40;;;13.63;;
23624;SDS011;11989;47.872;12.014;2023-05-13T03:05:22;17.85;;;14.13;;
23624;SDS011;11989;47.872;12.014;2023-05-13T03:07:48;18.27;;;14.30;;
23624;SDS011;11989;47.872;12.014;2023-05-13T03:10:14;16.63;;;13.70;;
23624;SDS011;11989;47.872;12.014;2023-05-13T03:12:40;17.48;;;14.07;;
23624;SDS011;11989;47.872;12.014;2023-05-13T03:15:07;17.80;;;14.10;;
23624;SDS011;11989;47.872;12.014;2023-05-13T03:17:33;17.27;;;14.73;;
23624;SDS011;11989;47.872;12.014;2023-05-13T03:19:59;19.23;;;15.05;;
23624;SDS011;11989;47.872;12.014;2023-05-13T03:22:25;16.95;;;13.63;;
23624;SDS011;11989;47.872;12.014;2023-05-13T03:24:51;18.33;;;14.60;;
23624;SDS011;11989;47.872;12.014;2023-05-13T03:27:17;19.45;;;15.00;;
23624;SDS011;11989;47.872;12.014;2023-05-13T03:29:44;17.83;;;14.43;;
23624;SDS011;11989;47.872;12.014;2023-05-13T03:32:10;18.13;;;15.40;;
23624;SDS011;11989;47.872;12.014;2023-05-13T03:34:36;18.40;;;15.02;;
23624;SDS011;11989;47.872;12.014;2023-05-13T03:37:02;21.08;;;16.20;;
23624;SDS011;11989;47.872;12.014;2023-05-13T03:39:28;18.35;;;14.95;;
23624;SDS011;11989;47.872;12.014;2023-05-13T03:41:54;21.17;;;16.02;;
23624;SDS011;11989;47.872;12.014;2023-05-13T03:44:20;19.38;;;16.25;;
23624;SDS011;11989;47.872;12.014;2023-05-13T03:46:46;18.20;;;14.93;;
23624;SDS011;11989;47.872;12.014;2023-05-13T03:49:12;18.73;;;14.60;;
23624;SDS011;11989;47.872;12.014;2023-05-13T03:51:38;19.02;;;15.80;;
23624;SDS011;11989;47.872;12.014;2023-05-13T03:54:04;16.58;;;14.43;;
23624;SDS011;11989;47.872;12.014;2023-05-13T03:56:30;17.98;;;15.02;;
23624;SDS011;11989;47.872;12.014;2023-05-13T03:58:56;18.67;;;15.88;;
23624;SDS011;11989;47.872;12.014;2023-05-13T04:01:22;20.05;;;15.50;;
23624;SDS011;11989;47.872;12.014;2023-05-13T04:03:48;19.25;;;16.85;;
23624;SDS011;11989;47.872;12.014;2023-05-13T04:06:14;21.02;;;16.83;;
23624;SDS011;11989;47.872;12.014;2023-05-13T04:08:40;19.98;;;15.70;;
23624;SDS011;11989;47.872;12.014;2023-05-13T04:11:07;22.45;;;17.05;;
23624;SDS011;11989;47.872;12.014;2023-05-13T04:13:33;20.85;;;16.08;;
23624;SDS011;11989;47.872;12.014;2023-05-13T04:16:00;20.35;;;17.38;;
23624;SDS011;11989;47.872;12.014;2023-05-13T04:18:28;20.02;;;16.05;;
23624;SDS011;11989;47.872;12.014;2023-05-13T04:20:54;22.73;;;16.85;;
23624;SDS011;11989;47.872;12.014;2023-05-13T04:23:20;22.15;;;17.33;;
23624;SDS011;11989;47.872;12.014;2023-05-13T04:25:52;22.20;;;17.40;;
23624;SDS011;11989;47.872;12.014;2023-05-13T04:28:18;23.48;;;17.25;;
23624;SDS011;11989;47.872;12.014;2023-05-13T04:30:44;20.52;;;16.95;;
23624;SDS011;11989;47.872;12.014;2023-05-13T04:33:11;24.63;;;17.77;;
23624;SDS011;11989;47.872;12.014;2023-05-13T04:35:37;21.92;;;16.33;;
23624;SDS011;11989;47.872;12.014;2023-05-13T04:38:03;24.38;;;17.83;;
